Gongxian, China
Current Conditions -  °F | °C
As of 2:00 AM on Thursday 27 Nov 2014 (Local Time) from ZHCC Reporting Station
Haze Haze  
Wind Chill: 43°   Ceiling: Unl
Heat Index: 43°   Visibility: 0.75mi
Dew Point: 41°   Wind: 2mph
Humidity: 93%   Direction: 200°SSW
Pressure: 30.06"   Gusts: NA
Location:  34.77°N, 112.95°E
Report Text: ZHCC 261800Z 20001MPS 1200 R12/1700D BR NSC 06/05 Q1018 NOSIG
Loading
Personal Weather Stations






























Interactive Weather Map New forecast layout! Learn more

10-Day Weather Forecast

Advertisements
Track Severe Weather on mobile